sensor_id;sensor_type;location;lat;lon;timestamp;P1;durP1;ratioP1;P2;durP2;ratioP2
19566;SDS011;9930;49.240;8.548;2023-04-06T00:01:24;5.30;;;4.37;;
19566;SDS011;9930;49.240;8.548;2023-04-06T00:03:55;5.10;;;4.60;;
19566;SDS011;9930;49.240;8.548;2023-04-06T00:06:21;4.90;;;4.40;;
19566;SDS011;9930;49.240;8.548;2023-04-06T00:08:46;5.40;;;4.90;;
19566;SDS011;9930;49.240;8.548;2023-04-06T00:11:15;6.07;;;5.47;;
19566;SDS011;9930;49.240;8.548;2023-04-06T00:13:43;5.90;;;5.10;;
19566;SDS011;9930;49.240;8.548;2023-04-06T00:16:10;6.70;;;6.00;;
19566;SDS011;9930;49.240;8.548;2023-04-06T00:18:37;5.50;;;4.90;;
19566;SDS011;9930;49.240;8.548;2023-04-06T00:21:03;6.73;;;4.97;;
19566;SDS011;9930;49.240;8.548;2023-04-06T00:23:31;5.07;;;4.67;;
19566;SDS011;9930;49.240;8.548;2023-04-06T00:25:57;5.70;;;4.63;;
19566;SDS011;9930;49.240;8.548;2023-04-06T00:28:23;4.33;;;3.87;;
19566;SDS011;9930;49.240;8.548;2023-04-06T00:30:51;4.53;;;3.70;;
19566;SDS011;9930;49.240;8.548;2023-04-06T00:33:22;3.90;;;3.60;;
19566;SDS011;9930;49.240;8.548;2023-04-06T00:35:50;5.00;;;3.93;;
19566;SDS011;9930;49.240;8.548;2023-04-06T00:38:16;3.90;;;3.60;;
19566;SDS011;9930;49.240;8.548;2023-04-06T00:40:45;3.80;;;3.50;;
19566;SDS011;9930;49.240;8.548;2023-04-06T00:43:11;4.10;;;3.70;;
19566;SDS011;9930;49.240;8.548;2023-04-06T00:45:40;4.77;;;3.70;;
19566;SDS011;9930;49.240;8.548;2023-04-06T00:48:08;4.40;;;3.80;;
19566;SDS011;9930;49.240;8.548;2023-04-06T00:50:43;3.93;;;3.50;;
19566;SDS011;9930;49.240;8.548;2023-04-06T00:53:08;4.13;;;3.70;;
19566;SDS011;9930;49.240;8.548;2023-04-06T00:55:39;4.07;;;3.70;;
19566;SDS011;9930;49.240;8.548;2023-04-06T00:58:05;4.63;;;4.10;;
19566;SDS011;9930;49.240;8.548;2023-04-06T01:00:34;4.10;;;3.70;;
19566;SDS011;9930;49.240;8.548;2023-04-06T01:03:00;4.23;;;3.83;;
19566;SDS011;9930;49.240;8.548;2023-04-06T01:05:32;5.23;;;3.73;;
19566;SDS011;9930;49.240;8.548;2023-04-06T01:07:59;4.10;;;3.70;;
19566;SDS011;9930;49.240;8.548;2023-04-06T01:10:28;5.03;;;4.10;;
19566;SDS011;9930;49.240;8.548;2023-04-06T01:12:54;4.13;;;3.50;;
19566;SDS011;9930;49.240;8.548;2023-04-06T01:15:22;3.70;;;3.30;;
19566;SDS011;9930;49.240;8.548;2023-04-06T01:17:52;4.53;;;3.70;;
19566;SDS011;9930;49.240;8.548;2023-04-06T01:20:18;4.17;;;3.77;;
19566;SDS011;9930;49.240;8.548;2023-04-06T01:22:47;4.67;;;4.00;;
19566;SDS011;9930;49.240;8.548;2023-04-06T01:25:12;5.27;;;4.10;;
19566;SDS011;9930;49.240;8.548;2023-04-06T01:27:38;5.47;;;4.37;;
19566;SDS011;9930;49.240;8.548;2023-04-06T01:30:04;4.23;;;3.83;;
19566;SDS011;9930;49.240;8.548;2023-04-06T01:32:34;4.37;;;3.97;;
19566;SDS011;9930;49.240;8.548;2023-04-06T01:35:02;3.97;;;3.57;;
19566;SDS011;9930;49.240;8.548;2023-04-06T01:37:28;4.53;;;4.13;;
19566;SDS011;9930;49.240;8.548;2023-04-06T01:39:57;5.93;;;3.97;;
19566;SDS011;9930;49.240;8.548;2023-04-06T01:42:22;4.93;;;4.47;;
19566;SDS011;9930;49.240;8.548;2023-04-06T01:44:48;4.63;;;4.23;;
19566;SDS011;9930;49.240;8.548;2023-04-06T01:47:16;4.93;;;3.80;;
19566;SDS011;9930;49.240;8.548;2023-04-06T01:49:44;4.53;;;4.13;;
19566;SDS011;9930;49.240;8.548;2023-04-06T01:52:10;4.70;;;4.30;;
19566;SDS011;9930;49.240;8.548;2023-04-06T01:54:36;4.47;;;4.00;;
19566;SDS011;9930;49.240;8.548;2023-04-06T01:57:05;5.33;;;4.50;;
19566;SDS011;9930;49.240;8.548;2023-04-06T01:59:32;4.23;;;3.70;;
19566;SDS011;9930;49.240;8.548;2023-04-06T02:02:00;4.03;;;3.73;;
19566;SDS011;9930;49.240;8.548;2023-04-06T02:04:26;3.77;;;3.47;;
19566;SDS011;9930;49.240;8.548;2023-04-06T02:06:54;4.27;;;3.97;;
19566;SDS011;9930;49.240;8.548;2023-04-06T02:09:20;4.03;;;3.63;;
19566;SDS011;9930;49.240;8.548;2023-04-06T02:11:46;4.40;;;4.00;;
19566;SDS011;9930;49.240;8.548;2023-04-06T02:14:14;4.00;;;3.60;;
19566;SDS011;9930;49.240;8.548;2023-04-06T02:16:40;5.07;;;4.10;;
19566;SDS011;9930;49.240;8.548;2023-04-06T02:19:06;4.30;;;3.90;;
19566;SDS011;9930;49.240;8.548;2023-04-06T02:21:32;4.10;;;3.70;;
19566;SDS011;9930;49.240;8.548;2023-04-06T02:24:01;4.57;;;3.83;;
19566;SDS011;9930;49.240;8.548;2023-04-06T02:26:26;5.47;;;4.30;;
19566;SDS011;9930;49.240;8.548;2023-04-06T02:28:52;4.53;;;4.10;;
19566;SDS011;9930;49.240;8.548;2023-04-06T02:31:18;4.43;;;4.03;;
19566;SDS011;9930;49.240;8.548;2023-04-06T02:33:44;4.80;;;4.30;;
19566;SDS011;9930;49.240;8.548;2023-04-06T02:36:12;5.07;;;4.57;;
19566;SDS011;9930;49.240;8.548;2023-04-06T02:38:40;4.70;;;4.30;;
19566;SDS011;9930;49.240;8.548;2023-04-06T02:41:07;4.30;;;3.90;;
19566;SDS011;9930;49.240;8.548;2023-04-06T02:43:37;4.47;;;4.03;;
19566;SDS011;9930;49.240;8.548;2023-04-06T02:46:08;6.10;;;4.60;;
19566;SDS011;9930;49.240;8.548;2023-04-06T02:48:33;4.43;;;4.00;;
19566;SDS011;9930;49.240;8.548;2023-04-06T02:51:02;5.00;;;4.17;;
19566;SDS011;9930;49.240;8.548;2023-04-06T02:53:30;4.80;;;4.40;;
19566;SDS011;9930;49.240;8.548;2023-04-06T02:55:55;5.00;;;4.50;;
19566;SDS011;9930;49.240;8.548;2023-04-06T02:58:23;4.53;;;4.13;;
19566;SDS011;9930;49.240;8.548;2023-04-06T03:00:49;4.87;;;4.37;;
19566;SDS011;9930;49.240;8.548;2023-04-06T03:03:15;11.20;;;9.03;;
19566;SDS011;9930;49.240;8.548;2023-04-06T03:05:45;16.70;;;13.97;;
19566;SDS011;9930;49.240;8.548;2023-04-06T03:08:12;16.53;;;13.60;;
19566;SDS011;9930;49.240;8.548;2023-04-06T03:10:42;13.33;;;11.90;;
19566;SDS011;9930;49.240;8.548;2023-04-06T03:13:08;11.90;;;10.70;;
19566;SDS011;9930;49.240;8.548;2023-04-06T03:15:36;9.30;;;8.30;;
19566;SDS011;9930;49.240;8.548;2023-04-06T03:18:02;7.20;;;6.50;;
19566;SDS011;9930;49.240;8.548;2023-04-06T03:20:28;7.00;;;6.30;;
19566;SDS011;9930;49.240;8.548;2023-04-06T03:22:54;6.40;;;5.73;;
19566;SDS011;9930;49.240;8.548;2023-04-06T03:25:20;6.07;;;5.47;;
19566;SDS011;9930;49.240;8.548;2023-04-06T03:27:46;5.63;;;4.93;;
19566;SDS011;9930;49.240;8.548;2023-04-06T03:30:14;6.03;;;5.43;;
19566;SDS011;9930;49.240;8.548;2023-04-06T03:32:45;5.93;;;5.33;;
19566;SDS011;9930;49.240;8.548;2023-04-06T03:35:11;5.33;;;4.77;;
19566;SDS011;9930;49.240;8.548;2023-04-06T03:37:37;5.60;;;4.67;;
19566;SDS011;9930;49.240;8.548;2023-04-06T03:40:11;4.87;;;4.27;;
19566;SDS011;9930;49.240;8.548;2023-04-06T03:42:39;7.07;;;5.30;;
19566;SDS011;9930;49.240;8.548;2023-04-06T03:45:08;5.53;;;5.03;;
19566;SDS011;9930;49.240;8.548;2023-04-06T03:47:37;4.93;;;4.43;;
19566;SDS011;9930;49.240;8.548;2023-04-06T03:50:08;5.97;;;5.33;;
19566;SDS011;9930;49.240;8.548;2023-04-06T03:52:34;5.87;;;5.20;;
19566;SDS011;9930;49.240;8.548;2023-04-06T03:55:01;5.20;;;4.63;;
19566;SDS011;9930;49.240;8.548;2023-04-06T03:57:29;5.10;;;4.60;;
19566;SDS011;9930;49.240;8.548;2023-04-06T03:59:55;5.27;;;4.73;;
19566;SDS011;9930;49.240;8.548;2023-04-06T04:02:21;5.77;;;5.00;;
19566;SDS011;9930;49.240;8.548;2023-04-06T04:04:47;6.03;;;5.20;;
19566;SDS011;9930;49.240;8.548;2023-04-06T04:07:12;5.43;;;4.93;;
19566;SDS011;9930;49.240;8.548;2023-04-06T04:09:40;4.70;;;4.23;;
19566;SDS011;9930;49.240;8.548;2023-04-06T04:12:09;5.90;;;4.87;;
19566;SDS011;9930;49.240;8.548;2023-04-06T04:14:36;5.20;;;4.70;;
19566;SDS011;9930;49.240;8.548;2023-04-06T04:17:02;5.23;;;4.53;;
19566;SDS011;9930;49.240;8.548;2023-04-06T04:19:28;4.87;;;4.37;;
19566;SDS011;9930;49.240;8.548;2023-04-06T04:21:54;5.30;;;4.67;;
19566;SDS011;9930;49.240;8.548;2023-04-06T04:24:19;5.13;;;4.63;;
19566;SDS011;9930;49.240;8.548;2023-04-06T04:26:45;5.77;;;4.43;;
19566;SDS011;9930;49.240;8.548;2023-04-06T04:29:11;5.43;;;4.70;;
19566;SDS011;9930;49.240;8.548;2023-04-06T04:31:42;6.17;;;4.73;;
19566;SDS011;9930;49.240;8.548;2023-04-06T04:34:08;4.40;;;4.00;;
19566;SDS011;9930;49.240;8.548;2023-04-06T04:36:39;5.00;;;4.60;;
19566;SDS011;9930;49.240;8.548;2023-04-06T04:39:11;4.93;;;4.43;;
19566;SDS011;9930;49.240;8.548;2023-04-06T04:41:40;4.47;;;4.07;;
19566;SDS011;9930;49.240;8.548;2023-04-06T04:44:08;5.37;;;4.50;;
19566;SDS011;9930;49.240;8.548;2023-04-06T04:46:38;5.47;;;4.83;;
19566;SDS011;9930;49.240;8.548;2023-04-06T04:49:04;5.23;;;4.73;;
19566;SDS011;9930;49.240;8.548;2023-04-06T04:51:30;5.90;;;4.77;;
19566;SDS011;9930;49.240;8.548;2023-04-06T04:53:58;5.40;;;4.73;;
19566;SDS011;9930;49.240;8.548;2023-04-06T04:56:27;5.00;;;4.50;;
19566;SDS011;9930;49.240;8.548;2023-04-06T04:58:55;5.23;;;4.73;;
19566;SDS011;9930;49.240;8.548;2023-04-06T05:01:20;4.90;;;4.50;;
19566;SDS011;9930;49.240;8.548;2023-04-06T05:03:49;5.20;;;4.70;;
19566;SDS011;9930;49.240;8.548;2023-04-06T05:06:17;5.13;;;4.63;;
19566;SDS011;9930;49.240;8.548;2023-04-06T05:08:45;5.13;;;4.57;;
19566;SDS011;9930;49.240;8.548;2023-04-06T05:11:11;4.60;;;4.07;;
19566;SDS011;9930;49.240;8.548;2023-04-06T05:13:37;5.60;;;4.93;;
19566;SDS011;9930;49.240;8.548;2023-04-06T05:16:08;6.30;;;5.57;;
19566;SDS011;9930;49.240;8.548;2023-04-06T05:18:36;5.40;;;4.87;;
19566;SDS011;9930;49.240;8.548;2023-04-06T05:21:03;5.37;;;4.83;;
19566;SDS011;9930;49.240;8.548;2023-04-06T05:23:32;6.13;;;5.20;;
19566;SDS011;9930;49.240;8.548;2023-04-06T05:25:57;5.63;;;5.13;;
19566;SDS011;9930;49.240;8.548;2023-04-06T05:28:23;5.87;;;5.23;;
19566;SDS011;9930;49.240;8.548;2023-04-06T05:30:49;5.03;;;4.63;;
19566;SDS011;9930;49.240;8.548;2023-04-06T05:33:15;4.90;;;4.40;;
19566;SDS011;9930;49.240;8.548;2023-04-06T05:35:43;5.53;;;4.90;;
19566;SDS011;9930;49.240;8.548;2023-04-06T05:38:12;5.90;;;5.30;;
19566;SDS011;9930;49.240;8.548;2023-04-06T05:40:43;9.23;;;8.30;;
19566;SDS011;9930;49.240;8.548;2023-04-06T05:43:08;11.13;;;10.03;;
19566;SDS011;9930;49.240;8.548;2023-04-06T05:45:34;7.90;;;7.10;;
19566;SDS011;9930;49.240;8.548;2023-04-06T05:48:01;7.10;;;6.30;;
19566;SDS011;9930;49.240;8.548;2023-04-06T05:50:27;6.87;;;5.97;;
19566;SDS011;9930;49.240;8.548;2023-04-06T05:52:53;5.90;;;5.40;;
19566;SDS011;9930;49.240;8.548;2023-04-06T05:55:22;6.37;;;5.77;;
19566;SDS011;9930;49.240;8.548;2023-04-06T05:57:47;6.33;;;5.73;;
19566;SDS011;9930;49.240;8.548;2023-04-06T06:00:13;6.97;;;6.30;;
19566;SDS011;9930;49.240;8.548;2023-04-06T06:02:39;6.53;;;5.93;;
19566;SDS011;9930;49.240;8.548;2023-04-06T06:05:07;6.57;;;5.97;;
19566;SDS011;9930;49.240;8.548;2023-04-06T06:07:35;7.33;;;6.63;;
19566;SDS011;9930;49.240;8.548;2023-04-06T06:10:00;7.27;;;6.57;;
19566;SDS011;9930;49.240;8.548;2023-04-06T06:12:27;8.23;;;7.27;;
19566;SDS011;9930;49.240;8.548;2023-04-06T06:14:55;8.27;;;6.57;;
19566;SDS011;9930;49.240;8.548;2023-04-06T06:17:20;7.30;;;6.27;;
19566;SDS011;9930;49.240;8.548;2023-04-06T06:19:47;7.07;;;6.20;;
19566;SDS011;9930;49.240;8.548;2023-04-06T06:22:12;7.63;;;6.37;;
19566;SDS011;9930;49.240;8.548;2023-04-06T06:24:41;6.90;;;6.20;;
19566;SDS011;9930;49.240;8.548;2023-04-06T06:27:09;6.73;;;6.00;;
19566;SDS011;9930;49.240;8.548;2023-04-06T06:29:35;6.90;;;6.20;;
19566;SDS011;9930;49.240;8.548;2023-04-06T06:32:06;7.77;;;6.47;;
19566;SDS011;9930;49.240;8.548;2023-04-06T06:34:37;6.90;;;6.20;;
19566;SDS011;9930;49.240;8.548;2023-04-06T06:37:05;7.43;;;6.63;;
19566;SDS011;9930;49.240;8.548;2023-04-06T06:39:33;7.77;;;6.90;;
19566;SDS011;9930;49.240;8.548;2023-04-06T06:41:58;7.70;;;6.40;;
19566;SDS011;9930;49.240;8.548;2023-04-06T06:44:27;6.97;;;6.38;;
19566;SDS011;9930;49.240;8.548;2023-04-06T06:46:55;7.18;;;6.38;;
19566;SDS011;9930;49.240;8.548;2023-04-06T06:49:21;8.82;;;7.60;;
19566;SDS011;9930;49.240;8.548;2023-04-06T06:51:52;8.70;;;7.80;;
19566;SDS011;9930;49.240;8.548;2023-04-06T06:54:17;7.78;;;7.05;;
19566;SDS011;9930;49.240;8.548;2023-04-06T06:56:48;8.52;;;7.30;;
19566;SDS011;9930;49.240;8.548;2023-04-06T06:59:13;8.30;;;7.28;;
19566;SDS011;9930;49.240;8.548;2023-04-06T07:01:41;7.88;;;7.07;;
19566;SDS011;9930;49.240;8.548;2023-04-06T07:04:07;7.90;;;7.18;;
19566;SDS011;9930;49.240;8.548;2023-04-06T07:06:35;7.57;;;6.88;;
19566;SDS011;9930;49.240;8.548;2023-04-06T07:09:02;7.38;;;6.68;;
19566;SDS011;9930;49.240;8.548;2023-04-06T07:11:29;7.53;;;6.78;;
19566;SDS011;9930;49.240;8.548;2023-04-06T07:13:57;8.05;;;7.28;;
19566;SDS011;9930;49.240;8.548;2023-04-06T07:16:23;7.60;;;6.90;;
19566;SDS011;9930;49.240;8.548;2023-04-06T07:18:51;7.25;;;6.55;;
19566;SDS011;9930;49.240;8.548;2023-04-06T07:21:17;6.30;;;5.70;;
19566;SDS011;9930;49.240;8.548;2023-04-06T07:23:47;6.40;;;5.80;;
19566;SDS011;9930;49.240;8.548;2023-04-06T07:26:18;6.85;;;6.18;;
19566;SDS011;9930;49.240;8.548;2023-04-06T07:28:44;7.03;;;6.32;;
19566;SDS011;9930;49.240;8.548;2023-04-06T07:31:12;7.22;;;6.53;;
19566;SDS011;9930;49.240;8.548;2023-04-06T07:33:40;6.55;;;6.05;;
19566;SDS011;9930;49.240;8.548;2023-04-06T07:36:05;6.22;;;5.63;;
19566;SDS011;9930;49.240;8.548;2023-04-06T07:38:32;5.75;;;5.25;;
19566;SDS011;9930;49.240;8.548;2023-04-06T07:40:58;6.32;;;5.72;;
19566;SDS011;9930;49.240;8.548;2023-04-06T07:43:24;5.78;;;5.28;;
19566;SDS011;9930;49.240;8.548;2023-04-06T07:45:50;5.55;;;5.05;;
19566;SDS011;9930;49.240;8.548;2023-04-06T07:48:18;5.90;;;5.30;;
19566;SDS011;9930;49.240;8.548;2023-04-06T07:50:44;5.85;;;5.35;;
19566;SDS011;9930;49.240;8.548;2023-04-06T07:53:10;5.88;;;5.38;;
19566;SDS011;9930;49.240;8.548;2023-04-06T07:55:36;5.35;;;4.85;;
19566;SDS011;9930;49.240;8.548;2023-04-06T07:58:02;5.10;;;4.60;;
19566;SDS011;9930;49.240;8.548;2023-04-06T08:00:29;5.35;;;4.82;;
19566;SDS011;9930;49.240;8.548;2023-04-06T08:02:55;5.30;;;4.80;;
19566;SDS011;9930;49.240;8.548;2023-04-06T08:05:21;5.60;;;5.10;;
19566;SDS011;9930;49.240;8.548;2023-04-06T08:07:47;5.10;;;4.70;;
19566;SDS011;9930;49.240;8.548;2023-04-06T08:10:15;5.20;;;4.70;;
19566;SDS011;9930;49.240;8.548;2023-04-06T08:12:41;5.55;;;4.85;;
19566;SDS011;9930;49.240;8.548;2023-04-06T08:15:09;5.25;;;4.82;;
19566;SDS011;9930;49.240;8.548;2023-04-06T08:17:41;5.80;;;5.30;;
19566;SDS011;9930;49.240;8.548;2023-04-06T08:20:14;5.45;;;4.95;;
19566;SDS011;9930;49.240;8.548;2023-04-06T08:22:42;5.75;;;5.25;;
19566;SDS011;9930;49.240;8.548;2023-04-06T08:25:11;5.60;;;4.82;;
19566;SDS011;9930;49.240;8.548;2023-04-06T08:27:38;6.20;;;5.32;;
19566;SDS011;9930;49.240;8.548;2023-04-06T08:30:04;6.05;;;5.45;;
19566;SDS011;9930;49.240;8.548;2023-04-06T08:32:31;5.72;;;5.22;;
19566;SDS011;9930;49.240;8.548;2023-04-06T08:34:59;6.30;;;5.70;;
19566;SDS011;9930;49.240;8.548;2023-04-06T08:37:25;5.22;;;4.82;;
19566;SDS011;9930;49.240;8.548;2023-04-06T08:39:51;5.38;;;4.88;;
19566;SDS011;9930;49.240;8.548;2023-04-06T08:42:18;5.45;;;4.95;;
19566;SDS011;9930;49.240;8.548;2023-04-06T08:44:47;4.95;;;4.53;;
19566;SDS011;9930;49.240;8.548;2023-04-06T08:47:16;4.80;;;4.40;;
19566;SDS011;9930;49.240;8.548;2023-04-06T08:49:43;5.20;;;4.70;;
19566;SDS011;9930;49.240;8.548;2023-04-06T08:52:11;5.05;;;4.55;;
19566;SDS011;9930;49.240;8.548;2023-04-06T08:54:38;5.15;;;4.65;;
19566;SDS011;9930;49.240;8.548;2023-04-06T08:57:04;5.03;;;4.53;;
19566;SDS011;9930;49.240;8.548;2023-04-06T08:59:33;6.15;;;5.30;;
19566;SDS011;9930;49.240;8.548;2023-04-06T09:02:04;4.88;;;4.45;;
19566;SDS011;9930;49.240;8.548;2023-04-06T09:04:32;5.00;;;4.60;;
19566;SDS011;9930;49.240;8.548;2023-04-06T09:07:03;5.82;;;4.90;;
19566;SDS011;9930;49.240;8.548;2023-04-06T09:09:28;5.00;;;4.57;;
19566;SDS011;9930;49.240;8.548;2023-04-06T09:11:56;5.43;;;4.45;;
19566;SDS011;9930;49.240;8.548;2023-04-06T09:14:36;4.68;;;4.28;;
19566;SDS011;9930;49.240;8.548;2023-04-06T09:17:05;5.20;;;4.60;;
19566;SDS011;9930;49.240;8.548;2023-04-06T09:19:31;4.97;;;4.47;;
19566;SDS011;9930;49.240;8.548;2023-04-06T09:22:10;6.85;;;4.63;;
19566;SDS011;9930;49.240;8.548;2023-04-06T09:24:40;4.32;;;4.03;;
19566;SDS011;9930;49.240;8.548;2023-04-06T09:27:15;4.70;;;4.30;;
19566;SDS011;9930;49.240;8.548;2023-04-06T09:29:42;4.97;;;4.55;;
19566;SDS011;9930;49.240;8.548;2023-04-06T09:32:09;4.78;;;4.38;;
19566;SDS011;9930;49.240;8.548;2023-04-06T09:34:38;4.47;;;4.13;;
19566;SDS011;9930;49.240;8.548;2023-04-06T09:37:12;4.85;;;4.40;;
19566;SDS011;9930;49.240;8.548;2023-04-06T09:39:43;5.22;;;4.70;;
19566;SDS011;9930;49.240;8.548;2023-04-06T09:42:11;5.15;;;4.65;;
19566;SDS011;9930;49.240;8.548;2023-04-06T09:44:49;4.72;;;4.32;;
19566;SDS011;9930;49.240;8.548;2023-04-06T09:47:17;4.88;;;4.47;;
19566;SDS011;9930;49.240;8.548;2023-04-06T09:49:45;4.97;;;4.28;;
19566;SDS011;9930;49.240;8.548;2023-04-06T09:52:22;4.18;;;3.88;;
19566;SDS011;9930;49.240;8.548;2023-04-06T09:54:55;5.13;;;4.55;;
19566;SDS011;9930;49.240;8.548;2023-04-06T10:00:25;4.60;;;4.20;;
19566;SDS011;9930;49.240;8.548;2023-04-06T10:03:14;4.85;;;4.45;;
19566;SDS011;9930;49.240;8.548;2023-04-06T10:06:00;4.70;;;4.30;;
19566;SDS011;9930;49.240;8.548;2023-04-06T10:08:36;5.38;;;4.40;;
19566;SDS011;9930;49.240;8.548;2023-04-06T10:11:15;5.05;;;4.38;;
19566;SDS011;9930;49.240;8.548;2023-04-06T10:13:41;4.60;;;3.80;;
19566;SDS011;9930;49.240;8.548;2023-04-06T10:16:11;4.65;;;4.25;;
19566;SDS011;9930;49.240;8.548;2023-04-06T10:18:39;4.72;;;4.32;;
19566;SDS011;9930;49.240;8.548;2023-04-06T10:21:30;4.22;;;3.92;;
19566;SDS011;9930;49.240;8.548;2023-04-06T10:24:01;4.40;;;4.00;;
19566;SDS011;9930;49.240;8.548;2023-04-06T10:26:39;5.22;;;4.15;;
19566;SDS011;9930;49.240;8.548;2023-04-06T10:29:08;5.13;;;4.43;;
19566;SDS011;9930;49.240;8.548;2023-04-06T10:31:40;4.65;;;4.25;;
19566;SDS011;9930;49.240;8.548;2023-04-06T10:34:08;5.20;;;4.18;;
19566;SDS011;9930;49.240;8.548;2023-04-06T10:36:37;4.70;;;4.20;;
19566;SDS011;9930;49.240;8.548;2023-04-06T10:39:04;5.60;;;4.72;;
19566;SDS011;9930;49.240;8.548;2023-04-06T10:44:00;4.53;;;4.13;;
19566;SDS011;9930;49.240;8.548;2023-04-06T10:46:30;4.95;;;4.50;;
19566;SDS011;9930;49.240;8.548;2023-04-06T10:49:09;4.85;;;4.45;;
19566;SDS011;9930;49.240;8.548;2023-04-06T10:51:38;4.72;;;4.32;;
19566;SDS011;9930;49.240;8.548;2023-04-06T10:54:06;5.10;;;4.57;;
19566;SDS011;9930;49.240;8.548;2023-04-06T10:56:36;4.90;;;4.40;;
19566;SDS011;9930;49.240;8.548;2023-04-06T10:59:05;5.50;;;4.93;;
19566;SDS011;9930;49.240;8.548;2023-04-06T11:01:32;5.88;;;5.38;;
19566;SDS011;9930;49.240;8.548;2023-04-06T11:03:58;5.38;;;4.88;;
19566;SDS011;9930;49.240;8.548;2023-04-06T11:06:29;4.90;;;4.50;;
19566;SDS011;9930;49.240;8.548;2023-04-06T11:09:01;5.50;;;5.10;;
19566;SDS011;9930;49.240;8.548;2023-04-06T11:11:29;5.25;;;4.65;;
19566;SDS011;9930;49.240;8.548;2023-04-06T11:13:56;5.05;;;4.53;;
19566;SDS011;9930;49.240;8.548;2023-04-06T11:16:27;6.22;;;5.63;;
19566;SDS011;9930;49.240;8.548;2023-04-06T11:18:57;5.05;;;4.63;;
19566;SDS011;9930;49.240;8.548;2023-04-06T11:21:39;4.97;;;4.57;;
19566;SDS011;9930;49.240;8.548;2023-04-06T11:24:23;5.75;;;5.25;;
19566;SDS011;9930;49.240;8.548;2023-04-06T11:26:56;5.57;;;5.07;;
19566;SDS011;9930;49.240;8.548;2023-04-06T11:29:27;5.93;;;5.10;;
19566;SDS011;9930;49.240;8.548;2023-04-06T11:32:02;4.70;;;4.20;;
19566;SDS011;9930;49.240;8.548;2023-04-06T11:34:30;5.10;;;4.70;;
19566;SDS011;9930;49.240;8.548;2023-04-06T11:37:06;5.68;;;4.85;;
19566;SDS011;9930;49.240;8.548;2023-04-06T11:42:34;4.93;;;4.43;;
19566;SDS011;9930;49.240;8.548;2023-04-06T11:45:00;4.90;;;4.43;;
19566;SDS011;9930;49.240;8.548;2023-04-06T11:47:27;4.57;;;4.18;;
19566;SDS011;9930;49.240;8.548;2023-04-06T11:52:41;5.47;;;4.85;;
19566;SDS011;9930;49.240;8.548;2023-04-06T11:55:11;4.57;;;4.22;;
19566;SDS011;9930;49.240;8.548;2023-04-06T11:57:43;4.90;;;4.50;;
19566;SDS011;9930;49.240;8.548;2023-04-06T12:00:12;4.65;;;4.25;;
19566;SDS011;9930;49.240;8.548;2023-04-06T12:02:39;5.13;;;4.50;;
19566;SDS011;9930;49.240;8.548;2023-04-06T12:05:12;5.20;;;4.40;;
19566;SDS011;9930;49.240;8.548;2023-04-06T12:07:40;5.43;;;4.93;;
19566;SDS011;9930;49.240;8.548;2023-04-06T12:10:11;4.65;;;4.25;;
19566;SDS011;9930;49.240;8.548;2023-04-06T12:12:37;4.93;;;4.53;;
19566;SDS011;9930;49.240;8.548;2023-04-06T12:15:06;5.32;;;4.93;;
19566;SDS011;9930;49.240;8.548;2023-04-06T12:17:33;5.63;;;5.13;;
19566;SDS011;9930;49.240;8.548;2023-04-06T12:20:01;5.15;;;4.65;;
19566;SDS011;9930;49.240;8.548;2023-04-06T12:22:32;5.03;;;4.63;;
19566;SDS011;9930;49.240;8.548;2023-04-06T12:25:00;5.28;;;4.88;;
19566;SDS011;9930;49.240;8.548;2023-04-06T12:27:27;5.30;;;4.80;;
19566;SDS011;9930;49.240;8.548;2023-04-06T12:29:56;5.60;;;5.15;;
19566;SDS011;9930;49.240;8.548;2023-04-06T12:32:24;6.15;;;5.65;;
19566;SDS011;9930;49.240;8.548;2023-04-06T12:34:55;5.97;;;5.45;;
19566;SDS011;9930;49.240;8.548;2023-04-06T12:37:21;5.63;;;5.13;;
19566;SDS011;9930;49.240;8.548;2023-04-06T12:39:46;5.80;;;5.20;;
19566;SDS011;9930;49.240;8.548;2023-04-06T12:42:15;6.38;;;5.78;;
19566;SDS011;9930;49.240;8.548;2023-04-06T12:44:40;5.90;;;5.40;;
19566;SDS011;9930;49.240;8.548;2023-04-06T12:47:07;5.68;;;5.20;;
19566;SDS011;9930;49.240;8.548;2023-04-06T12:49:36;5.97;;;5.47;;
19566;SDS011;9930;49.240;8.548;2023-04-06T12:52:02;6.13;;;5.53;;
19566;SDS011;9930;49.240;8.548;2023-04-06T12:56:54;5.82;;;5.28;;
19566;SDS011;9930;49.240;8.548;2023-04-06T12:59:22;5.85;;;5.35;;
19566;SDS011;9930;49.240;8.548;2023-04-06T13:01:50;5.80;;;5.30;;
19566;SDS011;9930;49.240;8.548;2023-04-06T13:04:17;5.60;;;5.10;;
19566;SDS011;9930;49.240;8.548;2023-04-06T13:06:45;5.43;;;4.93;;
19566;SDS011;9930;49.240;8.548;2023-04-06T13:09:14;5.25;;;4.80;;
19566;SDS011;9930;49.240;8.548;2023-04-06T13:11:42;6.43;;;5.32;;
19566;SDS011;9930;49.240;8.548;2023-04-06T13:14:08;5.38;;;4.88;;
19566;SDS011;9930;49.240;8.548;2023-04-06T13:16:36;5.40;;;4.82;;
19566;SDS011;9930;49.240;8.548;2023-04-06T13:19:10;5.65;;;5.15;;
19566;SDS011;9930;49.240;8.548;2023-04-06T13:21:39;4.82;;;4.43;;
19566;SDS011;9930;49.240;8.548;2023-04-06T13:24:09;5.03;;;4.53;;
19566;SDS011;9930;49.240;8.548;2023-04-06T13:26:36;5.20;;;4.70;;
19566;SDS011;9930;49.240;8.548;2023-04-06T13:29:06;5.13;;;4.63;;
19566;SDS011;9930;49.240;8.548;2023-04-06T13:31:32;4.82;;;4.40;;
19566;SDS011;9930;49.240;8.548;2023-04-06T13:34:00;5.50;;;4.90;;
19566;SDS011;9930;49.240;8.548;2023-04-06T13:36:27;5.40;;;4.90;;
19566;SDS011;9930;49.240;8.548;2023-04-06T13:38:55;6.00;;;4.90;;
19566;SDS011;9930;49.240;8.548;2023-04-06T13:41:21;5.18;;;4.57;;
19566;SDS011;9930;49.240;8.548;2023-04-06T13:43:53;5.60;;;5.10;;
19566;SDS011;9930;49.240;8.548;2023-04-06T13:46:23;5.75;;;5.25;;
19566;SDS011;9930;49.240;8.548;2023-04-06T13:48:49;5.45;;;4.95;;
19566;SDS011;9930;49.240;8.548;2023-04-06T13:51:19;5.43;;;4.93;;
19566;SDS011;9930;49.240;8.548;2023-04-06T13:53:48;5.82;;;5.32;;
19566;SDS011;9930;49.240;8.548;2023-04-06T13:56:17;9.85;;;9.15;;
19566;SDS011;9930;49.240;8.548;2023-04-06T13:58:43;7.10;;;6.40;;
19566;SDS011;9930;49.240;8.548;2023-04-06T14:01:09;7.22;;;6.53;;
19566;SDS011;9930;49.240;8.548;2023-04-06T14:03:35;5.93;;;5.03;;
19566;SDS011;9930;49.240;8.548;2023-04-06T14:06:01;6.75;;;6.15;;
19566;SDS011;9930;49.240;8.548;2023-04-06T14:08:38;5.90;;;5.30;;
19566;SDS011;9930;49.240;8.548;2023-04-06T14:11:10;4.95;;;4.45;;
19566;SDS011;9930;49.240;8.548;2023-04-06T14:13:39;5.10;;;4.70;;
19566;SDS011;9930;49.240;8.548;2023-04-06T14:16:06;4.97;;;4.57;;
19566;SDS011;9930;49.240;8.548;2023-04-06T14:18:38;5.05;;;4.55;;
19566;SDS011;9930;49.240;8.548;2023-04-06T14:21:04;4.70;;;4.30;;
19566;SDS011;9930;49.240;8.548;2023-04-06T14:23:32;4.88;;;4.47;;
19566;SDS011;9930;49.240;8.548;2023-04-06T14:26:05;4.80;;;4.40;;
19566;SDS011;9930;49.240;8.548;2023-04-06T14:28:34;4.47;;;4.07;;
19566;SDS011;9930;49.240;8.548;2023-04-06T14:31:09;5.00;;;3.95;;
19566;SDS011;9930;49.240;8.548;2023-04-06T14:33:41;4.70;;;4.30;;
19566;SDS011;9930;49.240;8.548;2023-04-06T14:36:09;5.07;;;4.45;;
19566;SDS011;9930;49.240;8.548;2023-04-06T14:38:36;4.22;;;3.92;;
19566;SDS011;9930;49.240;8.548;2023-04-06T14:41:05;4.10;;;3.70;;
19566;SDS011;9930;49.240;8.548;2023-04-06T14:43:33;4.78;;;4.38;;
19566;SDS011;9930;49.240;8.548;2023-04-06T14:46:00;4.40;;;4.03;;
19566;SDS011;9930;49.240;8.548;2023-04-06T14:48:26;5.38;;;4.88;;
19566;SDS011;9930;49.240;8.548;2023-04-06T14:50:56;5.10;;;4.60;;
19566;SDS011;9930;49.240;8.548;2023-04-06T14:53:25;4.85;;;4.35;;
19566;SDS011;9930;49.240;8.548;2023-04-06T14:55:52;5.00;;;4.50;;
19566;SDS011;9930;49.240;8.548;2023-04-06T14:58:20;6.05;;;5.45;;
19566;SDS011;9930;49.240;8.548;2023-04-06T15:00:48;4.32;;;3.85;;
19566;SDS011;9930;49.240;8.548;2023-04-06T15:03:20;4.90;;;4.50;;
19566;SDS011;9930;49.240;8.548;2023-04-06T15:05:45;4.50;;;4.10;;
19566;SDS011;9930;49.240;8.548;2023-04-06T15:08:16;4.57;;;4.18;;
19566;SDS011;9930;49.240;8.548;2023-04-06T15:10:42;4.70;;;4.30;;
19566;SDS011;9930;49.240;8.548;2023-04-06T15:13:10;5.25;;;4.22;;
19566;SDS011;9930;49.240;8.548;2023-04-06T15:15:37;4.40;;;4.10;;
19566;SDS011;9930;49.240;8.548;2023-04-06T15:18:08;4.53;;;4.13;;
19566;SDS011;9930;49.240;8.548;2023-04-06T15:20:40;6.07;;;5.55;;